Climax, Georgia
Current Conditions -  °F | °C
As of 5:15 PM on Sunday 21 Dec 2014 (Local Time) from KBGE Reporting Station
Haze Haze  
Wind Chill: 55°   Ceiling: 300
Heat Index: 55°   Visibility: 2mi
Dew Point: 54°   Wind: 7mph
Humidity: 94%   Direction: 70°ENE
Pressure: 30.05"   Gusts: NA
Location:  30.88°N, 84.43°W
Report Text: KBGE 212215Z AUTO 07006KT 2SM BR OVC003 13/12 A3005 RMK AO2
Loading
Personal Weather Stations






























Interactive Weather Map New forecast layout! Learn more

10-Day Weather Forecast

Advertisements
Track Severe Weather on mobile